createdAt,value
2019-01-21T00:00:54.121Z,98.52
2019-01-21T00:01:54.089Z,98.57
2019-01-21T00:02:54.044Z,98.36
2019-01-21T00:03:54.025Z,98.50
2019-01-21T00:04:53.991Z,97.76
2019-01-21T00:05:54.012Z,97.55
2019-01-21T00:06:53.972Z,97.66
2019-01-21T00:07:54.012Z,97.55
2019-01-21T00:08:53.975Z,97.55
2019-01-21T00:09:54.033Z,97.66
2019-01-21T00:10:53.928Z,97.87
2019-01-21T00:11:53.936Z,98.40
2019-01-21T00:12:53.952Z,97.87
2019-01-21T00:13:53.978Z,98.19
2019-01-21T00:14:53.884Z,98.40
2019-01-21T00:15:53.976Z,98.30
2019-01-21T00:16:53.909Z,98.40
2019-01-21T00:17:53.893Z,98.50
2019-01-21T00:18:53.862Z,98.61
2019-01-21T00:19:53.891Z,97.91
2019-01-21T00:20:53.833Z,97.27
2019-01-21T00:21:53.931Z,97.60
2019-01-21T00:22:53.832Z,97.42
2019-01-21T00:23:53.852Z,97.11
2019-01-21T00:24:54.184Z,96.89
2019-01-21T00:25:53.846Z,96.36
2019-01-21T00:26:53.761Z,97.11
2019-01-21T00:27:53.840Z,97.32
2019-01-21T00:28:53.762Z,97.74
2019-01-21T00:29:53.883Z,98.02
2019-01-21T00:30:53.745Z,98.55
2019-01-21T00:31:53.781Z,98.55
2019-01-21T00:32:53.699Z,98.49
2019-01-21T00:33:53.812Z,98.60
2019-01-21T00:34:53.683Z,98.60
2019-01-21T00:35:53.695Z,98.70
2019-01-21T00:36:53.673Z,98.49
2019-01-21T00:37:53.718Z,98.70
2019-01-21T00:38:53.654Z,97.96
2019-01-21T00:39:53.722Z,98.49
2019-01-21T00:40:53.619Z,98.17
2019-01-21T00:41:53.634Z,98.70
2019-01-21T00:42:53.614Z,97.85
2019-01-21T00:43:53.690Z,98.60
2019-01-21T00:44:53.594Z,98.60
2019-01-21T00:45:53.666Z,98.60
2019-01-21T00:46:53.557Z,98.60
2019-01-21T00:47:53.576Z,98.66
2019-01-21T00:48:53.575Z,98.55
2019-01-21T00:49:53.595Z,98.66
2019-01-21T00:50:53.527Z,98.44
2019-01-21T00:51:53.615Z,98.50
2019-01-21T00:52:53.538Z,97.97
2019-01-21T00:53:53.513Z,97.97
2019-01-21T00:54:53.501Z,98.08
2019-01-21T00:55:53.529Z,98.36
2019-01-21T00:56:53.470Z,98.57
2019-01-21T00:57:53.553Z,98.14
2019-01-21T00:58:53.461Z,98.46
2019-01-21T00:59:53.482Z,98.68
2019-01-21T01:00:53.446Z,98.14
2019-01-21T01:01:53.471Z,97.97
2019-01-21T01:02:53.430Z,98.61
2019-01-21T01:03:53.490Z,98.02
2019-01-21T01:04:53.394Z,97.70
2019-01-21T01:05:53.387Z,97.38
2019-01-21T01:06:53.377Z,97.49
2019-01-21T01:07:53.418Z,97.53
2019-01-21T01:08:53.347Z,97.11
2019-01-21T01:09:53.438Z,96.68
2019-01-21T01:10:53.344Z,96.57
2019-01-21T01:11:53.334Z,96.31
2019-01-21T01:12:53.309Z,96.31
2019-01-21T01:13:53.342Z,95.89
2019-01-21T01:14:53.295Z,96.21
2019-01-21T01:15:53.369Z,96.15
2019-01-21T01:16:53.265Z,96.15
2019-01-21T01:17:53.287Z,96.36
2019-01-21T01:18:53.244Z,96.36
2019-01-21T01:19:53.306Z,96.89
2019-01-21T01:20:53.210Z,96.47
2019-01-21T01:21:53.297Z,96.15
2019-01-21T01:22:53.197Z,95.83
2019-01-21T01:23:53.205Z,96.15
2019-01-21T01:24:53.192Z,96.04
2019-01-21T01:25:53.185Z,96.25
2019-01-21T01:26:53.170Z,96.04
2019-01-21T01:27:53.240Z,96.15
2019-01-21T01:28:53.149Z,95.83
2019-01-21T01:29:53.169Z,95.83
2019-01-21T01:30:53.134Z,96.15
2019-01-21T01:32:15.193Z,96.15
2019-01-21T01:32:53.093Z,96.68
2019-01-21T01:33:53.084Z,96.68
2019-01-21T01:34:58.128Z,97.11
2019-01-21T01:35:53.092Z,97.32
2019-01-21T01:36:53.102Z,97.64
2019-01-21T01:37:53.061Z,97.64
2019-01-21T01:38:53.135Z,97.49
2019-01-21T01:39:53.053Z,97.42
2019-01-21T01:40:54.040Z,97.64
2019-01-21T01:41:53.026Z,97.42
2019-01-21T01:42:53.030Z,96.72
2019-01-21T01:43:52.984Z,96.72
2019-01-21T01:44:53.055Z,96.83
2019-01-21T01:45:53.006Z,96.72
2019-01-21T01:46:53.068Z,96.72
2019-01-21T01:47:52.942Z,96.77
2019-01-21T01:48:53.034Z,96.08
2019-01-21T01:49:52.940Z,96.34
2019-01-21T01:50:53.005Z,96.41
2019-01-21T01:51:52.904Z,96.38
2019-01-21T01:52:52.998Z,96.34
2019-01-21T01:53:52.897Z,96.38
2019-01-21T01:54:52.916Z,96.38
2019-01-21T01:55:52.896Z,96.38
2019-01-21T01:56:52.931Z,96.45
2019-01-21T01:57:52.847Z,96.45
2019-01-21T01:58:52.938Z,96.02
2019-01-21T01:59:52.909Z,96.12
2019-01-21T02:00:52.885Z,96.77
2019-01-21T02:01:52.801Z,96.55
2019-01-21T02:02:52.861Z,96.94
2019-01-21T02:03:52.795Z,97.15
2019-01-21T02:04:52.959Z,97.25
2019-01-21T02:05:52.780Z,97.00
2019-01-21T02:06:52.782Z,96.25
2019-01-21T02:07:52.760Z,96.31
2019-01-21T02:08:52.810Z,96.47
2019-01-21T02:09:52.725Z,96.47
2019-01-21T02:10:52.737Z,96.64
2019-01-21T02:11:52.709Z,96.21
2019-01-21T02:12:52.733Z,96.64
2019-01-21T02:13:52.687Z,97.06
2019-01-21T02:14:52.746Z,96.85
2019-01-21T02:15:52.661Z,97.27
2019-01-21T02:16:52.763Z,97.17
2019-01-21T02:17:52.655Z,96.31
2019-01-21T02:18:52.656Z,96.42
2019-01-21T02:19:52.626Z,96.11
2019-01-21T02:20:52.766Z,96.74
2019-01-21T02:21:52.588Z,96.36
2019-01-21T02:22:52.683Z,96.00
2019-01-21T02:23:52.572Z,96.25
2019-01-21T02:24:52.620Z,96.15
2019-01-21T02:25:52.698Z,96.36
2019-01-21T02:26:54.558Z,96.47
2019-01-21T02:27:52.531Z,96.47
2019-01-21T02:28:53.545Z,96.25
2019-01-21T02:29:52.513Z,96.57
2019-01-21T02:30:52.560Z,96.25
2019-01-21T02:31:52.525Z,96.68
2019-01-21T02:32:52.554Z,96.74
2019-01-21T02:33:52.518Z,96.42
2019-01-21T02:34:52.571Z,96.78
2019-01-21T02:35:52.860Z,96.15
2019-01-21T02:36:52.504Z,96.04
2019-01-21T02:37:52.431Z,96.36
2019-01-21T02:38:52.538Z,96.36
2019-01-21T02:39:52.429Z,95.94
2019-01-21T02:40:52.448Z,96.15
2019-01-21T02:41:53.447Z,96.36
2019-01-21T02:42:52.410Z,96.36
2019-01-21T02:43:52.375Z,96.51
2019-01-21T02:44:52.427Z,96.08
2019-01-21T02:45:52.389Z,96.68
2019-01-21T02:46:52.438Z,96.04
2019-01-21T02:47:59.781Z,96.47
2019-01-21T02:48:53.314Z,96.47
2019-01-21T02:49:52.366Z,97.00
2019-01-21T02:50:52.310Z,96.68
2019-01-21T02:51:52.374Z,96.53
2019-01-21T02:52:52.288Z,96.25
2019-01-21T02:53:52.292Z,96.04
2019-01-21T02:54:52.256Z,96.25
2019-01-21T02:55:52.394Z,97.00
2019-01-21T02:56:52.234Z,97.21
2019-01-21T02:57:52.323Z,97.60
2019-01-21T02:58:52.219Z,97.49
2019-01-21T02:59:52.234Z,97.49
2019-01-21T03:00:52.366Z,97.27
2019-01-21T03:01:52.237Z,98.02
2019-01-21T03:02:52.577Z,97.81
2019-01-21T03:03:52.288Z,97.81
2019-01-21T03:04:52.162Z,97.70
2019-01-21T03:05:52.168Z,97.70
2019-01-21T03:06:52.161Z,97.06
2019-01-21T03:07:52.179Z,97.17
2019-01-21T03:08:52.126Z,97.81
2019-01-21T03:09:52.210Z,97.81
2019-01-21T03:10:52.094Z,97.38
2019-01-21T03:11:55.617Z,97.38
2019-01-21T03:12:52.073Z,96.85
2019-01-21T03:13:52.113Z,97.00
2019-01-21T03:14:52.089Z,96.57
2019-01-21T03:15:52.129Z,96.57
2019-01-21T03:16:52.037Z,97.06
2019-01-21T03:17:52.048Z,97.27
2019-01-21T03:18:52.048Z,97.17
2019-01-21T03:19:52.054Z,97.17
2019-01-21T03:20:51.988Z,97.17
2019-01-21T03:21:52.104Z,97.60
2019-01-21T03:22:52.029Z,97.27
2019-01-21T03:23:51.979Z,97.23
2019-01-21T03:24:51.944Z,97.02
2019-01-21T03:25:52.006Z,97.76
2019-01-21T03:26:51.945Z,97.76
2019-01-21T03:27:52.009Z,97.55
2019-01-21T03:28:51.912Z,97.70
2019-01-21T03:29:51.968Z,97.70
2019-01-21T03:30:51.893Z,97.66
2019-01-21T03:31:51.971Z,97.66
2019-01-21T03:32:51.863Z,97.34
2019-01-21T03:33:51.963Z,97.34
2019-01-21T03:34:51.873Z,97.76
2019-01-21T03:35:51.900Z,97.34
2019-01-21T03:36:51.844Z,97.55
2019-01-21T03:37:51.871Z,97.13
2019-01-21T03:38:51.822Z,97.34
2019-01-21T03:39:51.890Z,97.55
2019-01-21T03:40:51.790Z,97.81
2019-01-21T03:41:51.833Z,97.23
2019-01-21T03:42:51.761Z,98.40
2019-01-21T03:43:51.815Z,98.61
2019-01-21T03:44:51.751Z,98.50
2019-01-21T03:45:51.823Z,98.50
2019-01-21T03:46:51.731Z,98.30
2019-01-21T03:47:51.734Z,98.30
2019-01-21T03:48:51.715Z,98.25
2019-01-21T03:49:51.745Z,98.25
2019-01-21T03:50:51.686Z,98.57
2019-01-21T03:51:51.791Z,98.57
2019-01-21T03:52:51.654Z,98.14
2019-01-21T03:53:51.670Z,98.14
2019-01-21T03:54:51.637Z,98.57
2019-01-21T03:55:51.698Z,98.46
2019-01-21T03:56:51.627Z,98.19
2019-01-21T03:57:51.741Z,97.97
2019-01-21T03:58:51.636Z,98.61
2019-01-21T03:59:51.616Z,98.50
2019-01-21T04:00:51.592Z,98.50
2019-01-21T04:01:52.680Z,98.50
2019-01-21T04:02:51.569Z,98.50
2019-01-21T04:03:51.637Z,97.87
2019-01-21T04:04:51.552Z,97.66
2019-01-21T04:05:51.556Z,97.55
2019-01-21T04:06:51.511Z,97.55
2019-01-21T04:07:51.594Z,97.55
2019-01-21T04:08:51.509Z,97.76
2019-01-21T04:09:51.573Z,97.55
2019-01-21T04:10:51.477Z,97.66
2019-01-21T04:11:51.494Z,97.66
2019-01-21T04:12:51.465Z,97.66
2019-01-21T04:13:51.551Z,97.76
2019-01-21T04:14:51.837Z,97.55
2019-01-21T04:15:51.511Z,97.55
2019-01-21T04:16:51.433Z,97.23
2019-01-21T04:17:51.450Z,97.23
2019-01-21T04:18:51.399Z,97.23
2019-01-21T04:19:51.477Z,97.66
2019-01-21T04:20:51.381Z,97.93
2019-01-21T04:21:51.478Z,97.30
2019-01-21T04:22:51.363Z,97.34
2019-01-21T04:23:51.368Z,97.02
2019-01-21T04:24:51.327Z,96.17
2019-01-21T04:25:51.379Z,96.59
2019-01-21T04:26:51.317Z,96.48
2019-01-21T04:27:51.418Z,96.17
2019-01-21T04:28:51.289Z,95.95
2019-01-21T04:29:51.319Z,95.81
2019-01-21T04:30:51.277Z,96.23
2019-01-21T04:31:51.317Z,95.85
2019-01-21T04:32:51.263Z,95.85
2019-01-21T04:33:51.335Z,96.17
2019-01-21T04:34:51.232Z,95.85
2019-01-21T04:35:51.240Z,96.17
2019-01-21T04:36:51.215Z,96.42
2019-01-21T04:37:51.297Z,96.38
2019-01-21T04:38:51.225Z,96.59
2019-01-21T04:39:51.277Z,96.38
2019-01-21T04:40:51.178Z,96.31
2019-01-21T04:41:51.185Z,95.85
2019-01-21T04:42:51.153Z,95.57
2019-01-21T04:43:51.203Z,95.57
2019-01-21T04:44:51.133Z,95.68
2019-01-21T04:45:51.217Z,95.29
2019-01-21T04:46:51.129Z,94.72
2019-01-21T04:47:51.155Z,95.19
2019-01-21T04:48:51.108Z,94.98
2019-01-21T04:49:53.196Z,95.19
2019-01-21T04:50:51.073Z,96.61
2019-01-21T04:51:52.076Z,96.57
2019-01-21T04:52:51.056Z,95.65
2019-01-21T04:53:51.089Z,95.65
2019-01-21T04:54:51.027Z,95.34
2019-01-21T04:55:51.159Z,95.23
2019-01-21T04:56:51.008Z,95.34
2019-01-21T04:57:52.017Z,95.17
2019-01-21T04:58:51.003Z,94.31
2019-01-21T04:59:51.000Z,95.49
2019-01-21T05:00:50.960Z,95.38
2019-01-21T05:01:51.035Z,95.21
2019-01-21T05:02:50.951Z,96.34
2019-01-21T05:03:51.498Z,96.12
2019-01-21T05:04:50.940Z,96.34
2019-01-21T05:05:50.942Z,96.45
2019-01-21T05:06:50.900Z,96.66
2019-01-21T05:07:50.954Z,96.34
2019-01-21T05:08:50.898Z,96.70
2019-01-21T05:09:50.982Z,95.32
2019-01-21T05:10:50.859Z,95.32
2019-01-21T05:11:50.875Z,95.53
2019-01-21T05:12:50.836Z,95.64
2019-01-21T05:13:50.917Z,94.78
2019-01-21T05:14:50.815Z,94.68
2019-01-21T05:15:50.906Z,94.08
2019-01-21T05:16:50.815Z,94.18
2019-01-21T05:17:50.831Z,95.04
2019-01-21T05:18:50.792Z,95.25
2019-01-21T05:19:50.825Z,95.15
2019-01-21T05:20:50.762Z,95.57
2019-01-21T05:21:50.847Z,95.51
2019-01-21T05:22:50.739Z,95.40
2019-01-21T05:23:50.795Z,95.51
2019-01-21T05:24:50.711Z,95.89
2019-01-21T05:25:50.795Z,95.78
2019-01-21T05:26:50.691Z,96.58
2019-01-21T05:27:50.784Z,96.75
2019-01-21T05:28:50.700Z,96.53
2019-01-21T05:29:50.694Z,96.85
2019-01-21T05:30:50.653Z,96.96
2019-01-21T05:31:50.710Z,96.75
2019-01-21T05:32:50.635Z,96.53
2019-01-21T05:33:50.743Z,96.53
2019-01-21T05:34:50.615Z,96.11
2019-01-21T05:35:50.633Z,96.64
2019-01-21T05:36:50.594Z,95.47
2019-01-21T05:37:50.648Z,94.82
2019-01-21T05:38:50.583Z,95.36
2019-01-21T05:39:58.539Z,95.15
2019-01-21T05:40:50.550Z,95.15
2019-01-21T05:41:58.557Z,96.11
2019-01-21T05:42:50.532Z,95.89
2019-01-21T05:43:57.570Z,96.00
2019-01-21T05:44:50.573Z,95.78
2019-01-21T05:45:51.527Z,95.36
2019-01-21T05:46:50.518Z,95.15
2019-01-21T05:47:50.511Z,95.25
2019-01-21T05:48:50.502Z,95.57
2019-01-21T05:49:50.541Z,94.93
2019-01-21T05:50:50.447Z,94.72
2019-01-21T05:51:50.558Z,95.57
2019-01-21T05:52:50.461Z,95.25
2019-01-21T05:53:50.474Z,95.57
2019-01-21T05:54:50.420Z,95.36
2019-01-21T05:55:50.462Z,95.25
2019-01-21T05:56:50.386Z,95.36
2019-01-21T05:57:50.469Z,95.25
2019-01-21T05:58:50.379Z,95.04
2019-01-21T05:59:50.417Z,96.11
2019-01-21T06:00:50.359Z,95.25
2019-01-21T06:01:50.404Z,95.25
2019-01-21T06:02:50.326Z,95.08
2019-01-21T06:03:50.412Z,95.51
2019-01-21T06:04:50.328Z,95.19
2019-01-21T06:05:50.326Z,94.87
2019-01-21T06:06:50.295Z,94.87
2019-01-21T06:07:50.355Z,94.38
2019-01-21T06:08:50.283Z,95.55
2019-01-21T06:09:50.383Z,95.29
2019-01-21T06:10:50.253Z,95.72
2019-01-21T06:11:50.260Z,95.55
2019-01-21T06:12:50.239Z,95.23
2019-01-21T06:13:50.274Z,94.48
2019-01-21T06:14:50.234Z,94.81
2019-01-21T06:15:50.325Z,95.34
2019-01-21T06:16:50.186Z,95.34
2019-01-21T06:17:50.202Z,95.98
2019-01-21T06:18:57.082Z,95.45
2019-01-21T06:19:51.260Z,95.45
2019-01-21T06:20:50.143Z,95.45
2019-01-21T06:21:50.225Z,95.34
2019-01-21T06:22:50.125Z,95.12
2019-01-21T06:23:50.140Z,95.34
2019-01-21T06:24:50.116Z,95.12
2019-01-21T06:25:50.168Z,95.76
2019-01-21T06:26:50.086Z,95.12
2019-01-21T06:27:50.175Z,94.48
2019-01-21T06:28:50.067Z,94.70
2019-01-21T06:30:04.643Z,94.74
2019-01-21T06:30:50.055Z,95.06
2019-01-21T06:31:50.097Z,95.23
2019-01-21T06:32:50.035Z,95.45
2019-01-21T06:33:51.027Z,94.87
2019-01-21T06:34:50.034Z,94.65
2019-01-21T06:35:50.175Z,95.40
2019-01-21T06:36:50.003Z,95.19
2019-01-21T06:37:50.029Z,94.44
2019-01-21T06:38:49.978Z,94.44
2019-01-21T06:39:50.114Z,94.44
2019-01-21T06:40:49.943Z,95.19
2019-01-21T06:41:49.957Z,95.36
2019-01-21T06:42:49.923Z,94.93
2019-01-21T06:43:49.977Z,95.36
2019-01-21T06:44:49.928Z,95.57
2019-01-21T06:45:49.984Z,95.36
2019-01-21T06:46:49.895Z,95.15
2019-01-21T06:47:49.900Z,95.68
2019-01-21T06:48:49.872Z,96.00
2019-01-21T06:49:50.018Z,96.00
2019-01-21T06:50:49.843Z,95.89
2019-01-21T06:51:49.929Z,96.21
2019-01-21T06:52:49.823Z,96.64
2019-01-21T06:53:49.850Z,96.70
2019-01-21T06:54:49.801Z,96.85
2019-01-21T06:55:49.880Z,96.49
2019-01-21T06:56:49.826Z,96.70
2019-01-21T06:57:49.861Z,96.87
2019-01-21T06:58:49.792Z,96.45
2019-01-21T06:59:49.770Z,95.95
2019-01-21T07:00:49.751Z,96.59
2019-01-21T07:01:49.805Z,95.78
2019-01-21T07:02:49.721Z,95.47
2019-01-21T07:03:49.833Z,95.25
2019-01-21T07:04:49.700Z,95.36
2019-01-21T07:05:49.731Z,95.25
2019-01-21T07:06:49.693Z,94.65
2019-01-21T07:07:49.727Z,94.65
2019-01-21T07:08:49.661Z,94.65
2019-01-21T07:09:49.736Z,94.12
2019-01-21T07:10:49.651Z,95.51
2019-01-21T07:11:49.650Z,95.40
2019-01-21T07:12:49.619Z,95.51
2019-01-21T07:13:49.682Z,94.87
2019-01-21T07:14:49.603Z,95.72
2019-01-21T07:15:49.721Z,95.25
2019-01-21T07:16:49.574Z,95.68
2019-01-21T07:17:49.598Z,95.42
2019-01-21T07:18:49.565Z,94.89
2019-01-21T07:19:49.618Z,95.81
2019-01-21T07:20:49.553Z,95.81
2019-01-21T07:21:49.624Z,96.77
2019-01-21T07:22:49.513Z,96.51
2019-01-21T07:23:49.538Z,96.61
2019-01-21T07:24:49.551Z,96.41
2019-01-21T07:25:49.564Z,96.41
2019-01-21T07:26:49.793Z,96.36
2019-01-21T07:27:51.498Z,96.36
2019-01-21T07:28:49.451Z,96.36
2019-01-21T07:29:49.482Z,96.68
2019-01-21T07:30:49.485Z,96.25
2019-01-21T07:31:49.503Z,96.47
2019-01-21T07:32:49.436Z,96.04
2019-01-21T07:33:49.506Z,96.36
2019-01-21T07:34:49.410Z,96.57
2019-01-21T07:35:49.425Z,96.64
2019-01-21T07:36:49.394Z,96.31
2019-01-21T07:37:49.417Z,96.06
2019-01-21T07:38:49.353Z,95.74
2019-01-21T07:39:49.838Z,95.74
2019-01-21T07:40:49.436Z,96.01
2019-01-21T07:41:49.341Z,96.12
2019-01-21T07:42:49.315Z,96.23
2019-01-21T07:43:49.356Z,96.12
2019-01-21T07:44:49.302Z,96.19
2019-01-21T07:45:49.369Z,96.19
2019-01-21T07:46:49.289Z,95.97
2019-01-21T07:47:49.392Z,96.04
2019-01-21T07:48:49.250Z,96.14
2019-01-21T07:49:49.293Z,95.04
2019-01-21T07:50:49.229Z,94.82
2019-01-21T07:51:49.333Z,94.25
2019-01-21T07:52:49.207Z,94.78
2019-01-21T07:53:49.227Z,95.02
2019-01-21T07:54:49.186Z,94.81
2019-01-21T07:55:49.236Z,94.76
2019-01-21T07:56:49.193Z,94.61
2019-01-21T07:57:49.243Z,94.57
2019-01-21T07:58:49.148Z,94.57
2019-01-21T07:59:49.162Z,94.64
2019-01-21T08:00:49.122Z,94.70
2019-01-21T08:01:49.211Z,93.21
2019-01-21T08:02:49.109Z,93.81
2019-01-21T08:03:49.193Z,93.01
2019-01-21T08:04:49.170Z,93.18
2019-01-21T08:05:49.105Z,92.82
2019-01-21T08:06:49.077Z,93.83
2019-01-21T08:07:49.117Z,92.83
2019-01-21T08:08:49.042Z,92.10
2019-01-21T08:09:49.131Z,93.22
2019-01-21T08:10:49.067Z,93.47
2019-01-21T08:11:49.062Z,92.94
2019-01-21T08:12:49.002Z,92.90
2019-01-21T08:13:49.051Z,93.96
2019-01-21T08:14:48.980Z,93.28
2019-01-21T08:15:49.066Z,94.12
2019-01-21T08:16:48.969Z,93.55
2019-01-21T08:17:48.971Z,94.35
2019-01-21T08:18:48.951Z,94.15
2019-01-21T08:19:48.995Z,94.04
2019-01-21T08:20:48.916Z,92.73
2019-01-21T08:21:49.037Z,93.57
2019-01-21T08:22:48.896Z,92.90
2019-01-21T08:23:48.909Z,92.96
2019-01-21T08:24:48.913Z,93.13
2019-01-21T08:25:48.924Z,92.23
2019-01-21T08:26:48.871Z,91.74
2019-01-21T08:27:48.938Z,92.06
2019-01-21T08:28:48.828Z,93.53
2019-01-21T08:29:48.851Z,94.06
2019-01-21T08:30:48.807Z,92.16
2019-01-21T08:31:48.863Z,93.01
2019-01-21T08:32:48.810Z,93.91
2019-01-21T08:33:48.876Z,91.97
2019-01-21T08:34:48.791Z,91.91
2019-01-21T08:35:48.789Z,91.87
2019-01-21T08:36:48.771Z,93.24
2019-01-21T08:37:48.827Z,92.96
2019-01-21T08:38:48.723Z,92.63
2019-01-21T08:39:48.831Z,92.52
2019-01-21T08:40:48.729Z,92.25
2019-01-21T08:41:48.733Z,91.78
2019-01-21T08:42:48.686Z,92.52
2019-01-21T08:43:48.740Z,92.99
2019-01-21T08:44:49.060Z,92.73
2019-01-21T08:45:48.823Z,92.63
2019-01-21T08:46:48.684Z,91.74
2019-01-21T08:47:48.694Z,91.87
2019-01-21T08:48:49.004Z,91.35
2019-01-21T08:49:48.682Z,89.87
2019-01-21T08:50:48.601Z,89.30
2019-01-21T08:51:48.713Z,90.00
2019-01-21T08:52:48.578Z,89.86
2019-01-21T08:53:48.610Z,89.32
2019-01-21T08:54:48.545Z,88.50
2019-01-21T08:55:49.657Z,89.62
2019-01-21T08:56:48.524Z,91.07
2019-01-21T08:57:48.608Z,87.92
2019-01-21T08:58:48.501Z,88.02
2019-01-21T08:59:56.030Z,86.38
2019-01-21T09:00:48.477Z,86.18
2019-01-21T09:01:48.583Z,87.50
2019-01-21T09:02:48.498Z,88.13
2019-01-21T09:03:48.476Z,87.65
2019-01-21T09:04:48.442Z,86.80
2019-01-21T09:05:48.481Z,86.98
2019-01-21T09:06:48.421Z,87.82
2019-01-21T09:07:48.530Z,87.71
2019-01-21T09:08:48.453Z,86.13
2019-01-21T09:09:48.405Z,87.95
2019-01-21T09:10:48.390Z,84.52
2019-01-21T09:11:48.433Z,84.48
2019-01-21T09:12:48.356Z,86.92
2019-01-21T09:13:48.461Z,86.85
2019-01-21T09:14:48.329Z,85.80
2019-01-21T09:15:48.362Z,83.42
2019-01-21T09:16:48.314Z,82.55
2019-01-21T09:17:48.388Z,80.32
2019-01-21T09:18:48.291Z,80.53
2019-01-21T09:19:48.392Z,81.89
2019-01-21T09:20:48.271Z,84.44
2019-01-21T09:21:48.287Z,84.53
2019-01-21T09:22:48.304Z,82.15
2019-01-21T09:23:48.333Z,79.05
2019-01-21T09:24:48.232Z,78.39
2019-01-21T09:25:48.311Z,76.86
2019-01-21T09:26:48.214Z,79.13
2019-01-21T09:27:48.300Z,77.66
2019-01-21T09:28:48.210Z,75.95
2019-01-21T09:29:48.235Z,75.81
2019-01-21T09:30:48.150Z,78.32
2019-01-21T09:31:48.659Z,76.47
2019-01-21T09:32:48.123Z,75.81
2019-01-21T09:33:48.196Z,76.02
2019-01-21T09:34:48.127Z,76.23
2019-01-21T09:35:48.217Z,76.44
2019-01-21T09:36:48.083Z,76.75
2019-01-21T09:37:48.192Z,78.14
2019-01-21T09:38:48.073Z,76.61
2019-01-21T09:39:48.151Z,75.71
2019-01-21T09:40:48.059Z,74.63
2019-01-21T09:41:48.114Z,73.90
2019-01-21T09:42:48.022Z,74.10
2019-01-21T09:43:48.075Z,74.42
2019-01-21T09:44:48.014Z,74.35
2019-01-21T09:45:48.053Z,73.72
2019-01-21T09:46:47.977Z,74.55
2019-01-21T09:47:49.082Z,74.42
2019-01-21T09:48:48.094Z,75.04
2019-01-21T09:49:47.965Z,74.87
2019-01-21T09:50:47.927Z,73.58
2019-01-21T09:51:47.979Z,70.28
2019-01-21T09:52:47.910Z,71.14
2019-01-21T09:53:47.990Z,72.64
2019-01-21T09:54:47.896Z,71.01
2019-01-21T09:55:47.913Z,72.78
2019-01-21T09:56:47.865Z,71.84
2019-01-21T09:57:47.919Z,73.38
2019-01-21T09:58:47.835Z,71.53
2019-01-21T09:59:47.861Z,68.78
2019-01-21T10:00:48.389Z,70.76
2019-01-21T10:01:47.840Z,71.12
2019-01-21T10:02:47.843Z,69.31
2019-01-21T10:03:47.854Z,68.78
2019-01-21T10:04:47.785Z,69.27
2019-01-21T10:05:47.867Z,68.82
2019-01-21T10:06:47.756Z,68.48
2019-01-21T10:07:47.782Z,66.74
2019-01-21T10:08:47.731Z,67.99
2019-01-21T10:09:47.818Z,67.68
2019-01-21T10:10:47.710Z,67.54
2019-01-21T10:11:47.722Z,66.68
2019-01-21T10:12:47.686Z,66.36
2019-01-21T10:13:47.718Z,65.64
2019-01-21T10:14:47.677Z,66.02
2019-01-21T10:15:47.731Z,64.25
2019-01-21T10:16:47.659Z,64.25
2019-01-21T10:17:47.643Z,65.16
2019-01-21T10:18:47.950Z,63.08
2019-01-21T10:19:50.782Z,63.00
2019-01-21T10:20:47.593Z,64.25
2019-01-21T10:21:47.678Z,65.16
2019-01-21T10:22:47.573Z,64.01
2019-01-21T10:23:47.582Z,63.94
2019-01-21T10:24:47.572Z,63.32
2019-01-21T10:25:49.643Z,63.84
2019-01-21T10:26:47.525Z,63.94
2019-01-21T10:27:47.610Z,63.34
2019-01-21T10:28:47.505Z,64.15
2019-01-21T10:29:47.584Z,62.22
2019-01-21T10:30:47.480Z,62.29
2019-01-21T10:31:47.551Z,61.69
2019-01-21T10:32:47.457Z,63.32
2019-01-21T10:33:47.552Z,63.03
2019-01-21T10:34:47.446Z,64.69
2019-01-21T10:35:47.469Z,65.73
2019-01-21T10:36:47.416Z,64.70
2019-01-21T10:37:47.485Z,62.90
2019-01-21T10:38:47.410Z,63.60
2019-01-21T10:39:47.516Z,62.45
2019-01-21T10:40:47.375Z,62.90
2019-01-21T10:41:47.898Z,62.53
2019-01-21T10:42:47.355Z,62.43
2019-01-21T10:43:47.417Z,62.98
2019-01-21T10:44:47.328Z,61.88
2019-01-21T10:45:47.348Z,60.66
2019-01-21T10:46:47.306Z,61.72
2019-01-21T10:47:47.346Z,61.44
2019-01-21T10:48:47.285Z,61.38
2019-01-21T10:49:47.350Z,61.43
2019-01-21T10:50:47.276Z,59.79
2019-01-21T10:51:47.370Z,58.70
2019-01-21T10:52:47.253Z,59.98
2019-01-21T10:53:47.279Z,62.01
2019-01-21T10:54:47.226Z,61.07
2019-01-21T10:55:47.327Z,60.29
2019-01-21T10:56:47.194Z,60.68
2019-01-21T10:57:47.205Z,60.82
2019-01-21T10:58:47.170Z,60.66
2019-01-21T10:59:47.220Z,60.86
2019-01-21T11:00:47.172Z,60.94
2019-01-21T11:01:47.232Z,60.94
2019-01-21T11:02:47.132Z,61.33
2019-01-21T11:03:47.141Z,61.02
2019-01-21T11:04:47.112Z,59.64
2019-01-21T11:05:47.191Z,59.12
2019-01-21T11:06:47.106Z,60.60
2019-01-21T11:07:47.073Z,59.48
2019-01-21T11:08:47.066Z,58.75
2019-01-21T11:09:55.411Z,59.17
2019-01-21T11:10:47.052Z,59.27
2019-01-21T11:11:53.996Z,57.84
2019-01-21T11:12:48.019Z,59.95
2019-01-21T11:13:48.032Z,60.19
2019-01-21T11:14:46.993Z,61.18
2019-01-21T11:15:47.059Z,60.94
2019-01-21T11:16:46.983Z,60.05
2019-01-21T11:17:47.031Z,60.47
2019-01-21T11:18:46.948Z,59.17
2019-01-21T11:19:47.965Z,58.00
2019-01-21T11:20:46.957Z,57.90
2019-01-21T11:21:46.955Z,59.35
2019-01-21T11:22:46.911Z,57.74
2019-01-21T11:23:46.969Z,59.74
2019-01-21T11:24:46.881Z,59.64
2019-01-21T11:25:46.880Z,60.03
2019-01-21T11:26:47.286Z,59.50
2019-01-21T11:27:46.894Z,59.74
2019-01-21T11:28:46.840Z,60.16
2019-01-21T11:29:46.909Z,60.68
2019-01-21T11:30:46.814Z,60.15
2019-01-21T11:31:46.858Z,57.81
2019-01-21T11:32:47.193Z,57.14
2019-01-21T11:33:46.834Z,57.82
2019-01-21T11:34:46.793Z,59.58
2019-01-21T11:35:46.848Z,57.90
2019-01-21T11:36:46.757Z,58.80
2019-01-21T11:37:46.760Z,58.10
2019-01-21T11:38:46.729Z,55.15
2019-01-21T11:39:46.773Z,54.84
2019-01-21T11:40:46.714Z,55.41
2019-01-21T11:41:46.815Z,56.05
2019-01-21T11:42:46.685Z,56.78
2019-01-21T11:43:46.696Z,56.31
2019-01-21T11:44:46.663Z,58.59
2019-01-21T11:45:46.709Z,57.76
2019-01-21T11:46:46.650Z,55.46
2019-01-21T11:47:46.723Z,54.79
2019-01-21T11:48:46.626Z,55.43
2019-01-21T11:49:46.650Z,57.35
2019-01-21T11:50:46.591Z,57.64
2019-01-21T11:51:46.685Z,56.44
2019-01-21T11:52:46.567Z,55.02
2019-01-21T11:53:46.663Z,57.64
2019-01-21T11:54:46.586Z,57.20
2019-01-21T11:55:53.527Z,56.31
2019-01-21T11:56:46.537Z,54.58
2019-01-21T11:57:48.540Z,54.35
2019-01-21T11:58:46.501Z,53.93
2019-01-21T11:59:47.526Z,53.59
2019-01-21T12:00:46.478Z,54.03
2019-01-21T12:01:46.554Z,54.39
2019-01-21T12:02:46.460Z,55.41
2019-01-21T12:03:46.527Z,55.30
2019-01-21T12:04:46.433Z,56.68
2019-01-21T12:05:46.436Z,55.22
2019-01-21T12:06:46.443Z,55.22
2019-01-21T12:07:46.456Z,54.58
2019-01-21T12:08:46.413Z,55.77
2019-01-21T12:09:46.468Z,55.22
2019-01-21T12:10:46.365Z,54.19
2019-01-21T12:11:46.380Z,54.63
2019-01-21T12:12:46.372Z,54.91
2019-01-21T12:13:46.391Z,55.12
2019-01-21T12:14:46.349Z,54.79
2019-01-21T12:15:46.448Z,54.81
2019-01-21T12:16:46.297Z,55.02
2019-01-21T12:17:46.351Z,54.58
2019-01-21T12:18:46.278Z,54.86
2019-01-21T12:19:46.356Z,55.18
2019-01-21T12:20:46.265Z,54.76
2019-01-21T12:21:46.343Z,54.76
2019-01-21T12:22:46.244Z,55.43
2019-01-21T12:23:46.254Z,56.05
2019-01-21T12:24:46.217Z,55.49
2019-01-21T12:25:46.268Z,54.74
2019-01-21T12:26:46.188Z,54.68
2019-01-21T12:27:46.221Z,55.93
2019-01-21T12:28:46.164Z,54.97
2019-01-21T12:29:46.192Z,54.48
2019-01-21T12:30:46.138Z,52.70
2019-01-21T12:31:46.205Z,52.62
2019-01-21T12:32:46.148Z,53.18
2019-01-21T12:33:46.218Z,53.39
2019-01-21T12:34:47.550Z,54.55
2019-01-21T12:35:46.130Z,54.11
2019-01-21T12:36:47.418Z,53.91
2019-01-21T12:37:47.202Z,54.19
2019-01-21T12:38:46.055Z,53.47
2019-01-21T12:39:48.142Z,53.16
2019-01-21T12:40:46.035Z,52.83
2019-01-21T12:41:48.121Z,52.83
2019-01-21T12:42:46.026Z,52.91
2019-01-21T12:43:48.029Z,52.72
2019-01-21T12:44:45.991Z,52.91
2019-01-21T12:45:45.994Z,51.97
2019-01-21T12:46:45.968Z,51.43
2019-01-21T12:47:46.044Z,52.12
2019-01-21T12:48:45.952Z,52.93
2019-01-21T12:49:46.021Z,51.07
2019-01-21T12:50:45.921Z,52.90
2019-01-21T12:51:46.324Z,53.64
2019-01-21T12:52:45.919Z,55.02